sensor_id;sensor_type;location;lat;lon;timestamp;P1;durP1;ratioP1;P2;durP2;ratioP2
11996;SDS011;6058;48.704;9.474;2023-02-28T00:00:18;2.77;;;1.80;;
11996;SDS011;6058;48.704;9.474;2023-02-28T00:02:45;3.80;;;2.00;;
11996;SDS011;6058;48.704;9.474;2023-02-28T00:05:13;2.67;;;1.40;;
11996;SDS011;6058;48.704;9.474;2023-02-28T00:07:41;2.43;;;1.70;;
11996;SDS011;6058;48.704;9.474;2023-02-28T00:10:09;2.37;;;1.87;;
11996;SDS011;6058;48.704;9.474;2023-02-28T00:12:38;2.33;;;1.63;;
11996;SDS011;6058;48.704;9.474;2023-02-28T00:15:05;1.40;;;1.30;;
11996;SDS011;6058;48.704;9.474;2023-02-28T00:17:33;2.40;;;1.83;;
11996;SDS011;6058;48.704;9.474;2023-02-28T00:20:00;2.23;;;1.67;;
11996;SDS011;6058;48.704;9.474;2023-02-28T00:22:37;2.53;;;1.60;;
11996;SDS011;6058;48.704;9.474;2023-02-28T00:25:05;1.93;;;1.80;;
11996;SDS011;6058;48.704;9.474;2023-02-28T00:27:33;4.97;;;1.70;;
11996;SDS011;6058;48.704;9.474;2023-02-28T00:30:01;2.33;;;1.73;;
11996;SDS011;6058;48.704;9.474;2023-02-28T00:32:29;2.27;;;1.70;;
11996;SDS011;6058;48.704;9.474;2023-02-28T00:34:56;3.70;;;1.80;;
11996;SDS011;6058;48.704;9.474;2023-02-28T00:37:23;1.97;;;1.40;;
11996;SDS011;6058;48.704;9.474;2023-02-28T00:39:50;2.93;;;0.77;;
11996;SDS011;6058;48.704;9.474;2023-02-28T00:42:17;1.50;;;1.37;;
11996;SDS011;6058;48.704;9.474;2023-02-28T00:44:44;2.33;;;2.03;;
11996;SDS011;6058;48.704;9.474;2023-02-28T00:47:13;2.17;;;1.20;;
11996;SDS011;6058;48.704;9.474;2023-02-28T00:49:40;2.23;;;1.30;;
11996;SDS011;6058;48.704;9.474;2023-02-28T00:52:09;1.97;;;1.70;;
11996;SDS011;6058;48.704;9.474;2023-02-28T00:54:36;1.10;;;1.10;;
11996;SDS011;6058;48.704;9.474;2023-02-28T00:57:04;1.30;;;1.20;;
11996;SDS011;6058;48.704;9.474;2023-02-28T00:59:31;3.10;;;1.80;;
11996;SDS011;6058;48.704;9.474;2023-02-28T01:01:58;1.30;;;1.13;;
11996;SDS011;6058;48.704;9.474;2023-02-28T01:04:26;2.73;;;1.60;;
11996;SDS011;6058;48.704;9.474;2023-02-28T01:06:53;2.07;;;1.67;;
11996;SDS011;6058;48.704;9.474;2023-02-28T01:09:20;1.93;;;1.70;;
11996;SDS011;6058;48.704;9.474;2023-02-28T01:14:16;1.97;;;1.43;;
11996;SDS011;6058;48.704;9.474;2023-02-28T01:16:43;2.17;;;1.90;;
11996;SDS011;6058;48.704;9.474;2023-02-28T01:19:11;0.53;;;0.53;;
11996;SDS011;6058;48.704;9.474;2023-02-28T01:21:39;2.57;;;1.33;;
11996;SDS011;6058;48.704;9.474;2023-02-28T01:24:06;1.80;;;1.47;;
11996;SDS011;6058;48.704;9.474;2023-02-28T01:26:34;1.97;;;1.70;;
11996;SDS011;6058;48.704;9.474;2023-02-28T01:29:01;2.60;;;2.07;;
11996;SDS011;6058;48.704;9.474;2023-02-28T01:31:28;2.47;;;1.70;;
11996;SDS011;6058;48.704;9.474;2023-02-28T01:33:55;1.97;;;1.63;;
11996;SDS011;6058;48.704;9.474;2023-02-28T01:36:23;3.20;;;1.60;;
11996;SDS011;6058;48.704;9.474;2023-02-28T01:38:51;4.07;;;1.90;;
11996;SDS011;6058;48.704;9.474;2023-02-28T01:41:20;2.03;;;1.60;;
11996;SDS011;6058;48.704;9.474;2023-02-28T01:43:55;1.73;;;1.63;;
11996;SDS011;6058;48.704;9.474;2023-02-28T01:46:22;1.73;;;1.63;;
11996;SDS011;6058;48.704;9.474;2023-02-28T01:48:50;2.97;;;1.80;;
11996;SDS011;6058;48.704;9.474;2023-02-28T01:51:19;2.83;;;1.87;;
11996;SDS011;6058;48.704;9.474;2023-02-28T01:53:48;2.53;;;1.73;;
11996;SDS011;6058;48.704;9.474;2023-02-28T01:56:17;3.93;;;1.87;;
11996;SDS011;6058;48.704;9.474;2023-02-28T01:58:47;2.07;;;1.97;;
11996;SDS011;6058;48.704;9.474;2023-02-28T02:01:14;2.97;;;2.33;;
11996;SDS011;6058;48.704;9.474;2023-02-28T02:03:46;1.80;;;1.70;;
11996;SDS011;6058;48.704;9.474;2023-02-28T02:06:13;3.57;;;2.13;;
11996;SDS011;6058;48.704;9.474;2023-02-28T02:08:40;2.60;;;1.93;;
11996;SDS011;6058;48.704;9.474;2023-02-28T02:11:07;3.53;;;1.80;;
11996;SDS011;6058;48.704;9.474;2023-02-28T02:13:56;2.30;;;2.10;;
11996;SDS011;6058;48.704;9.474;2023-02-28T02:16:31;5.00;;;2.47;;
11996;SDS011;6058;48.704;9.474;2023-02-28T02:19:03;3.67;;;1.90;;
11996;SDS011;6058;48.704;9.474;2023-02-28T02:21:47;2.80;;;2.03;;
11996;SDS011;6058;48.704;9.474;2023-02-28T02:32:49;3.43;;;0.83;;
11996;SDS011;6058;48.704;9.474;2023-02-28T02:35:27;2.37;;;1.67;;
11996;SDS011;6058;48.704;9.474;2023-02-28T02:37:57;5.03;;;2.07;;
11996;SDS011;6058;48.704;9.474;2023-02-28T02:40:27;2.30;;;1.90;;
11996;SDS011;6058;48.704;9.474;2023-02-28T02:42:57;2.00;;;1.80;;
11996;SDS011;6058;48.704;9.474;2023-02-28T02:45:27;1.50;;;1.40;;
11996;SDS011;6058;48.704;9.474;2023-02-28T02:48:00;2.57;;;1.87;;
11996;SDS011;6058;48.704;9.474;2023-02-28T02:50:30;2.93;;;1.93;;
11996;SDS011;6058;48.704;9.474;2023-02-28T02:53:00;1.87;;;1.77;;
11996;SDS011;6058;48.704;9.474;2023-02-28T02:55:29;2.77;;;2.23;;
11996;SDS011;6058;48.704;9.474;2023-02-28T02:57:58;1.80;;;1.63;;
11996;SDS011;6058;48.704;9.474;2023-02-28T03:00:26;2.17;;;1.97;;
11996;SDS011;6058;48.704;9.474;2023-02-28T03:02:56;2.87;;;2.07;;
11996;SDS011;6058;48.704;9.474;2023-02-28T03:05:25;3.17;;;2.10;;
11996;SDS011;6058;48.704;9.474;2023-02-28T03:07:54;3.43;;;2.17;;
11996;SDS011;6058;48.704;9.474;2023-02-28T03:10:26;2.83;;;2.20;;
11996;SDS011;6058;48.704;9.474;2023-02-28T03:12:56;3.53;;;2.27;;
11996;SDS011;6058;48.704;9.474;2023-02-28T03:15:29;2.37;;;1.93;;
11996;SDS011;6058;48.704;9.474;2023-02-28T03:18:01;1.73;;;0.77;;
11996;SDS011;6058;48.704;9.474;2023-02-28T03:20:34;2.90;;;1.80;;
11996;SDS011;6058;48.704;9.474;2023-02-28T03:23:06;3.70;;;2.30;;
11996;SDS011;6058;48.704;9.474;2023-02-28T03:25:37;3.37;;;2.20;;
11996;SDS011;6058;48.704;9.474;2023-02-28T03:28:07;2.47;;;2.27;;
11996;SDS011;6058;48.704;9.474;2023-02-28T03:30:39;2.97;;;2.10;;
11996;SDS011;6058;48.704;9.474;2023-02-28T03:33:09;2.20;;;2.00;;
11996;SDS011;6058;48.704;9.474;2023-02-28T03:35:39;2.73;;;2.00;;
11996;SDS011;6058;48.704;9.474;2023-02-28T03:38:09;2.73;;;1.80;;
11996;SDS011;6058;48.704;9.474;2023-02-28T03:40:39;3.00;;;2.37;;
11996;SDS011;6058;48.704;9.474;2023-02-28T03:43:09;2.30;;;2.10;;
11996;SDS011;6058;48.704;9.474;2023-02-28T03:45:37;2.57;;;2.37;;
11996;SDS011;6058;48.704;9.474;2023-02-28T03:48:07;4.00;;;2.40;;
11996;SDS011;6058;48.704;9.474;2023-02-28T03:50:36;3.63;;;2.57;;
11996;SDS011;6058;48.704;9.474;2023-02-28T03:53:08;2.60;;;2.40;;
11996;SDS011;6058;48.704;9.474;2023-02-28T03:55:39;2.83;;;2.53;;
11996;SDS011;6058;48.704;9.474;2023-02-28T03:58:09;3.97;;;2.17;;
11996;SDS011;6058;48.704;9.474;2023-02-28T04:00:38;2.30;;;1.43;;
11996;SDS011;6058;48.704;9.474;2023-02-28T04:03:06;4.10;;;2.00;;
11996;SDS011;6058;48.704;9.474;2023-02-28T04:05:34;2.77;;;2.00;;
11996;SDS011;6058;48.704;9.474;2023-02-28T04:08:11;3.10;;;2.20;;
11996;SDS011;6058;48.704;9.474;2023-02-28T04:10:40;2.37;;;2.17;;
11996;SDS011;6058;48.704;9.474;2023-02-28T04:13:10;3.47;;;2.40;;
11996;SDS011;6058;48.704;9.474;2023-02-28T04:15:38;2.30;;;2.10;;
11996;SDS011;6058;48.704;9.474;2023-02-28T04:18:06;4.60;;;1.43;;
11996;SDS011;6058;48.704;9.474;2023-02-28T04:20:33;1.07;;;1.07;;
11996;SDS011;6058;48.704;9.474;2023-02-28T04:23:00;3.83;;;2.70;;
11996;SDS011;6058;48.704;9.474;2023-02-28T04:25:27;3.93;;;2.40;;
11996;SDS011;6058;48.704;9.474;2023-02-28T04:27:55;2.97;;;2.40;;
11996;SDS011;6058;48.704;9.474;2023-02-28T04:30:22;2.63;;;2.43;;
11996;SDS011;6058;48.704;9.474;2023-02-28T04:32:50;7.30;;;2.43;;
11996;SDS011;6058;48.704;9.474;2023-02-28T04:35:17;2.63;;;1.80;;
11996;SDS011;6058;48.704;9.474;2023-02-28T04:37:44;2.83;;;2.60;;
11996;SDS011;6058;48.704;9.474;2023-02-28T04:40:11;3.03;;;2.33;;
11996;SDS011;6058;48.704;9.474;2023-02-28T04:42:38;3.03;;;2.07;;
11996;SDS011;6058;48.704;9.474;2023-02-28T04:45:08;4.03;;;3.10;;
11996;SDS011;6058;48.704;9.474;2023-02-28T04:47:36;3.67;;;2.50;;
11996;SDS011;6058;48.704;9.474;2023-02-28T04:50:03;3.83;;;2.67;;
11996;SDS011;6058;48.704;9.474;2023-02-28T04:52:30;3.33;;;2.67;;
11996;SDS011;6058;48.704;9.474;2023-02-28T04:54:58;4.00;;;3.00;;
11996;SDS011;6058;48.704;9.474;2023-02-28T04:57:25;4.57;;;3.70;;
11996;SDS011;6058;48.704;9.474;2023-02-28T04:59:52;4.03;;;3.03;;
11996;SDS011;6058;48.704;9.474;2023-02-28T05:02:20;3.77;;;3.10;;
11996;SDS011;6058;48.704;9.474;2023-02-28T05:04:48;3.47;;;2.93;;
11996;SDS011;6058;48.704;9.474;2023-02-28T05:07:15;3.90;;;2.60;;
11996;SDS011;6058;48.704;9.474;2023-02-28T05:09:42;4.23;;;2.70;;
11996;SDS011;6058;48.704;9.474;2023-02-28T05:12:10;2.90;;;2.37;;
11996;SDS011;6058;48.704;9.474;2023-02-28T05:14:37;2.83;;;2.20;;
11996;SDS011;6058;48.704;9.474;2023-02-28T05:17:04;2.90;;;1.87;;
11996;SDS011;6058;48.704;9.474;2023-02-28T05:19:32;4.27;;;2.70;;
11996;SDS011;6058;48.704;9.474;2023-02-28T05:21:59;3.30;;;2.53;;
11996;SDS011;6058;48.704;9.474;2023-02-28T05:24:27;3.33;;;3.03;;
11996;SDS011;6058;48.704;9.474;2023-02-28T05:26:54;4.60;;;2.97;;
11996;SDS011;6058;48.704;9.474;2023-02-28T05:29:21;4.53;;;3.07;;
11996;SDS011;6058;48.704;9.474;2023-02-28T05:31:49;3.60;;;2.17;;
11996;SDS011;6058;48.704;9.474;2023-02-28T05:34:16;3.77;;;2.80;;
11996;SDS011;6058;48.704;9.474;2023-02-28T05:36:44;4.13;;;3.03;;
11996;SDS011;6058;48.704;9.474;2023-02-28T05:39:11;5.17;;;3.33;;
11996;SDS011;6058;48.704;9.474;2023-02-28T05:41:39;3.70;;;2.37;;
11996;SDS011;6058;48.704;9.474;2023-02-28T05:44:07;4.77;;;3.27;;
11996;SDS011;6058;48.704;9.474;2023-02-28T05:46:34;4.87;;;3.23;;
11996;SDS011;6058;48.704;9.474;2023-02-28T05:49:01;4.33;;;1.87;;
11996;SDS011;6058;48.704;9.474;2023-02-28T05:51:28;5.00;;;3.80;;
11996;SDS011;6058;48.704;9.474;2023-02-28T05:53:59;5.00;;;3.70;;
11996;SDS011;6058;48.704;9.474;2023-02-28T05:56:27;2.20;;;1.47;;
11996;SDS011;6058;48.704;9.474;2023-02-28T05:58:54;3.20;;;2.13;;
11996;SDS011;6058;48.704;9.474;2023-02-28T06:01:23;2.10;;;1.90;;
11996;SDS011;6058;48.704;9.474;2023-02-28T06:03:51;5.80;;;3.67;;
11996;SDS011;6058;48.704;9.474;2023-02-28T06:06:18;4.63;;;3.50;;
11996;SDS011;6058;48.704;9.474;2023-02-28T06:08:45;3.20;;;2.33;;
11996;SDS011;6058;48.704;9.474;2023-02-28T06:11:13;4.87;;;2.80;;
11996;SDS011;6058;48.704;9.474;2023-02-28T06:13:41;4.07;;;3.50;;
11996;SDS011;6058;48.704;9.474;2023-02-28T06:16:08;3.00;;;2.70;;
11996;SDS011;6058;48.704;9.474;2023-02-28T06:18:36;2.60;;;2.40;;
11996;SDS011;6058;48.704;9.474;2023-02-28T06:21:03;4.07;;;3.50;;
11996;SDS011;6058;48.704;9.474;2023-02-28T06:25:58;3.30;;;2.97;;
11996;SDS011;6058;48.704;9.474;2023-02-28T06:28:27;4.67;;;2.93;;
11996;SDS011;6058;48.704;9.474;2023-02-28T06:30:54;5.77;;;3.70;;
11996;SDS011;6058;48.704;9.474;2023-02-28T06:33:21;4.50;;;2.97;;
11996;SDS011;6058;48.704;9.474;2023-02-28T06:35:49;3.97;;;2.60;;
11996;SDS011;6058;48.704;9.474;2023-02-28T06:38:17;6.43;;;3.83;;
11996;SDS011;6058;48.704;9.474;2023-02-28T06:40:44;5.50;;;3.30;;
11996;SDS011;6058;48.704;9.474;2023-02-28T06:43:11;5.30;;;3.97;;
11996;SDS011;6058;48.704;9.474;2023-02-28T06:45:42;4.60;;;2.70;;
11996;SDS011;6058;48.704;9.474;2023-02-28T06:48:09;5.20;;;3.87;;
11996;SDS011;6058;48.704;9.474;2023-02-28T06:50:38;5.13;;;3.30;;
11996;SDS011;6058;48.704;9.474;2023-02-28T06:53:05;4.50;;;2.50;;
11996;SDS011;6058;48.704;9.474;2023-02-28T06:55:32;5.77;;;3.70;;
11996;SDS011;6058;48.704;9.474;2023-02-28T06:57:59;5.00;;;3.47;;
11996;SDS011;6058;48.704;9.474;2023-02-28T07:00:26;3.30;;;2.60;;
11996;SDS011;6058;48.704;9.474;2023-02-28T07:02:54;5.10;;;3.57;;
11996;SDS011;6058;48.704;9.474;2023-02-28T07:05:22;6.90;;;4.40;;
11996;SDS011;6058;48.704;9.474;2023-02-28T07:07:49;1.83;;;1.73;;
11996;SDS011;6058;48.704;9.474;2023-02-28T07:10:17;3.43;;;2.53;;
11996;SDS011;6058;48.704;9.474;2023-02-28T07:12:45;5.17;;;3.80;;
11996;SDS011;6058;48.704;9.474;2023-02-28T07:15:12;6.37;;;4.53;;
11996;SDS011;6058;48.704;9.474;2023-02-28T07:17:39;6.70;;;4.40;;
11996;SDS011;6058;48.704;9.474;2023-02-28T07:20:09;6.83;;;4.57;;
11996;SDS011;6058;48.704;9.474;2023-02-28T07:22:36;6.30;;;4.90;;
11996;SDS011;6058;48.704;9.474;2023-02-28T07:25:03;4.27;;;3.07;;
11996;SDS011;6058;48.704;9.474;2023-02-28T07:27:31;5.33;;;4.40;;
11996;SDS011;6058;48.704;9.474;2023-02-28T07:29:58;3.30;;;2.50;;
11996;SDS011;6058;48.704;9.474;2023-02-28T07:32:26;6.83;;;4.90;;
11996;SDS011;6058;48.704;9.474;2023-02-28T07:34:53;9.37;;;4.73;;
11996;SDS011;6058;48.704;9.474;2023-02-28T07:37:22;5.70;;;3.97;;
11996;SDS011;6058;48.704;9.474;2023-02-28T07:39:49;6.90;;;4.57;;
11996;SDS011;6058;48.704;9.474;2023-02-28T07:42:16;6.47;;;4.10;;
11996;SDS011;6058;48.704;9.474;2023-02-28T07:44:46;9.20;;;6.13;;
11996;SDS011;6058;48.704;9.474;2023-02-28T07:47:16;5.30;;;4.13;;
11996;SDS011;6058;48.704;9.474;2023-02-28T07:49:44;6.23;;;4.23;;
11996;SDS011;6058;48.704;9.474;2023-02-28T07:52:11;6.53;;;4.70;;
11996;SDS011;6058;48.704;9.474;2023-02-28T07:54:40;9.07;;;4.60;;
11996;SDS011;6058;48.704;9.474;2023-02-28T07:57:07;3.87;;;2.63;;
11996;SDS011;6058;48.704;9.474;2023-02-28T07:59:34;6.30;;;3.23;;
11996;SDS011;6058;48.704;9.474;2023-02-28T08:02:01;3.60;;;2.63;;
11996;SDS011;6058;48.704;9.474;2023-02-28T08:04:31;6.00;;;4.37;;
11996;SDS011;6058;48.704;9.474;2023-02-28T08:06:58;6.50;;;5.13;;
11996;SDS011;6058;48.704;9.474;2023-02-28T08:09:25;6.97;;;5.23;;
11996;SDS011;6058;48.704;9.474;2023-02-28T08:11:54;4.63;;;2.37;;
11996;SDS011;6058;48.704;9.474;2023-02-28T08:14:21;3.37;;;2.77;;
11996;SDS011;6058;48.704;9.474;2023-02-28T08:16:48;3.93;;;2.37;;
11996;SDS011;6058;48.704;9.474;2023-02-28T08:19:15;8.43;;;4.50;;
11996;SDS011;6058;48.704;9.474;2023-02-28T08:21:42;7.20;;;6.10;;
11996;SDS011;6058;48.704;9.474;2023-02-28T08:24:09;5.47;;;4.50;;
11996;SDS011;6058;48.704;9.474;2023-02-28T08:26:36;11.03;;;5.00;;
11996;SDS011;6058;48.704;9.474;2023-02-28T08:29:05;8.53;;;5.13;;
11996;SDS011;6058;48.704;9.474;2023-02-28T08:31:32;7.53;;;5.50;;
11996;SDS011;6058;48.704;9.474;2023-02-28T08:34:00;6.93;;;4.47;;
11996;SDS011;6058;48.704;9.474;2023-02-28T08:36:27;7.43;;;4.97;;
11996;SDS011;6058;48.704;9.474;2023-02-28T08:38:54;7.73;;;5.57;;
11996;SDS011;6058;48.704;9.474;2023-02-28T08:41:23;6.50;;;4.30;;
11996;SDS011;6058;48.704;9.474;2023-02-28T08:43:50;6.23;;;4.57;;
11996;SDS011;6058;48.704;9.474;2023-02-28T08:46:20;6.07;;;5.47;;
11996;SDS011;6058;48.704;9.474;2023-02-28T08:48:47;7.80;;;5.60;;
11996;SDS011;6058;48.704;9.474;2023-02-28T08:51:19;4.63;;;3.40;;
11996;SDS011;6058;48.704;9.474;2023-02-28T08:53:51;6.40;;;5.70;;
11996;SDS011;6058;48.704;9.474;2023-02-28T08:56:19;6.50;;;4.80;;
11996;SDS011;6058;48.704;9.474;2023-02-28T08:58:46;6.03;;;5.40;;
11996;SDS011;6058;48.704;9.474;2023-02-28T09:01:14;6.00;;;4.80;;
11996;SDS011;6058;48.704;9.474;2023-02-28T09:03:43;7.73;;;5.03;;
11996;SDS011;6058;48.704;9.474;2023-02-28T09:06:11;10.40;;;5.50;;
11996;SDS011;6058;48.704;9.474;2023-02-28T09:08:38;10.47;;;4.77;;
11996;SDS011;6058;48.704;9.474;2023-02-28T09:11:06;7.60;;;5.90;;
11996;SDS011;6058;48.704;9.474;2023-02-28T09:13:33;7.83;;;5.73;;
11996;SDS011;6058;48.704;9.474;2023-02-28T09:16:02;9.20;;;5.50;;
11996;SDS011;6058;48.704;9.474;2023-02-28T09:18:29;7.43;;;5.33;;
11996;SDS011;6058;48.704;9.474;2023-02-28T09:20:58;4.90;;;4.20;;
11996;SDS011;6058;48.704;9.474;2023-02-28T09:23:25;8.83;;;7.00;;
11996;SDS011;6058;48.704;9.474;2023-02-28T09:25:53;6.50;;;4.80;;
11996;SDS011;6058;48.704;9.474;2023-02-28T09:28:21;6.07;;;4.33;;
11996;SDS011;6058;48.704;9.474;2023-02-28T09:30:49;4.40;;;3.60;;
11996;SDS011;6058;48.704;9.474;2023-02-28T09:33:16;7.83;;;5.57;;
11996;SDS011;6058;48.704;9.474;2023-02-28T09:35:45;7.63;;;4.73;;
11996;SDS011;6058;48.704;9.474;2023-02-28T09:38:14;6.23;;;3.73;;
11996;SDS011;6058;48.704;9.474;2023-02-28T09:40:44;8.50;;;5.50;;
11996;SDS011;6058;48.704;9.474;2023-02-28T09:43:14;6.30;;;4.87;;
11996;SDS011;6058;48.704;9.474;2023-02-28T09:45:42;4.60;;;3.03;;
11996;SDS011;6058;48.704;9.474;2023-02-28T09:48:15;6.83;;;5.43;;
11996;SDS011;6058;48.704;9.474;2023-02-28T09:50:43;8.33;;;5.17;;
11996;SDS011;6058;48.704;9.474;2023-02-28T09:53:15;4.50;;;3.43;;
11996;SDS011;6058;48.704;9.474;2023-02-28T09:55:47;7.20;;;4.90;;
11996;SDS011;6058;48.704;9.474;2023-02-28T09:58:16;7.93;;;5.83;;
11996;SDS011;6058;48.704;9.474;2023-02-28T10:00:45;8.00;;;5.33;;
11996;SDS011;6058;48.704;9.474;2023-02-28T10:03:24;6.67;;;5.30;;
11996;SDS011;6058;48.704;9.474;2023-02-28T10:05:54;7.33;;;5.70;;
11996;SDS011;6058;48.704;9.474;2023-02-28T10:08:26;9.10;;;4.50;;
11996;SDS011;6058;48.704;9.474;2023-02-28T10:10:55;8.17;;;6.00;;
11996;SDS011;6058;48.704;9.474;2023-02-28T10:13:25;8.27;;;5.30;;
11996;SDS011;6058;48.704;9.474;2023-02-28T10:15:55;6.83;;;5.97;;
11996;SDS011;6058;48.704;9.474;2023-02-28T10:18:24;7.17;;;6.23;;
11996;SDS011;6058;48.704;9.474;2023-02-28T10:20:52;8.20;;;5.97;;
11996;SDS011;6058;48.704;9.474;2023-02-28T10:23:21;9.63;;;5.37;;
11996;SDS011;6058;48.704;9.474;2023-02-28T10:25:53;10.87;;;6.40;;
11996;SDS011;6058;48.704;9.474;2023-02-28T10:28:20;8.20;;;6.43;;
11996;SDS011;6058;48.704;9.474;2023-02-28T10:30:48;6.77;;;5.63;;
11996;SDS011;6058;48.704;9.474;2023-02-28T10:33:17;8.43;;;6.17;;
11996;SDS011;6058;48.704;9.474;2023-02-28T10:35:45;8.47;;;6.37;;
11996;SDS011;6058;48.704;9.474;2023-02-28T10:38:15;6.80;;;5.60;;
11996;SDS011;6058;48.704;9.474;2023-02-28T10:40:42;10.93;;;6.57;;
11996;SDS011;6058;48.704;9.474;2023-02-28T10:43:19;8.47;;;6.30;;
11996;SDS011;6058;48.704;9.474;2023-02-28T10:45:52;9.27;;;6.47;;
11996;SDS011;6058;48.704;9.474;2023-02-28T10:48:26;6.43;;;4.97;;
11996;SDS011;6058;48.704;9.474;2023-02-28T10:50:54;8.60;;;6.07;;
11996;SDS011;6058;48.704;9.474;2023-02-28T10:53:27;8.90;;;6.60;;
11996;SDS011;6058;48.704;9.474;2023-02-28T10:55:57;8.00;;;6.53;;
11996;SDS011;6058;48.704;9.474;2023-02-28T10:58:28;7.00;;;5.37;;
11996;SDS011;6058;48.704;9.474;2023-02-28T11:00:55;8.70;;;6.20;;
11996;SDS011;6058;48.704;9.474;2023-02-28T11:03:24;8.73;;;6.40;;
11996;SDS011;6058;48.704;9.474;2023-02-28T11:05:51;8.83;;;6.77;;
11996;SDS011;6058;48.704;9.474;2023-02-28T11:08:18;8.50;;;5.80;;
11996;SDS011;6058;48.704;9.474;2023-02-28T11:10:46;8.23;;;5.40;;
11996;SDS011;6058;48.704;9.474;2023-02-28T11:13:16;8.93;;;6.00;;
11996;SDS011;6058;48.704;9.474;2023-02-28T11:15:50;8.50;;;6.20;;
11996;SDS011;6058;48.704;9.474;2023-02-28T11:18:22;8.40;;;6.50;;
11996;SDS011;6058;48.704;9.474;2023-02-28T11:20:50;6.80;;;4.77;;
11996;SDS011;6058;48.704;9.474;2023-02-28T11:23:19;9.30;;;5.13;;
11996;SDS011;6058;48.704;9.474;2023-02-28T11:25:47;8.67;;;5.83;;
11996;SDS011;6058;48.704;9.474;2023-02-28T11:28:25;7.87;;;5.77;;
11996;SDS011;6058;48.704;9.474;2023-02-28T11:31:01;10.70;;;5.87;;
11996;SDS011;6058;48.704;9.474;2023-02-28T11:33:29;7.73;;;5.50;;
11996;SDS011;6058;48.704;9.474;2023-02-28T11:35:57;8.30;;;5.77;;
11996;SDS011;6058;48.704;9.474;2023-02-28T11:38:26;7.33;;;5.87;;
11996;SDS011;6058;48.704;9.474;2023-02-28T11:41:02;8.87;;;6.03;;
11996;SDS011;6058;48.704;9.474;2023-02-28T11:43:35;8.83;;;6.00;;
11996;SDS011;6058;48.704;9.474;2023-02-28T11:46:09;6.53;;;5.83;;
11996;SDS011;6058;48.704;9.474;2023-02-28T11:48:42;7.10;;;5.50;;
11996;SDS011;6058;48.704;9.474;2023-02-28T11:51:14;17.47;;;7.33;;
11996;SDS011;6058;48.704;9.474;2023-02-28T11:53:49;6.97;;;5.37;;
11996;SDS011;6058;48.704;9.474;2023-02-28T11:56:19;6.93;;;5.17;;
11996;SDS011;6058;48.704;9.474;2023-02-28T11:58:52;5.43;;;3.30;;
11996;SDS011;6058;48.704;9.474;2023-02-28T12:01:26;7.20;;;5.57;;
11996;SDS011;6058;48.704;9.474;2023-02-28T12:03:58;6.90;;;5.83;;
11996;SDS011;6058;48.704;9.474;2023-02-28T12:06:31;8.37;;;4.93;;
11996;SDS011;6058;48.704;9.474;2023-02-28T12:09:02;7.53;;;6.20;;
11996;SDS011;6058;48.704;9.474;2023-02-28T12:11:34;8.83;;;7.17;;
11996;SDS011;6058;48.704;9.474;2023-02-28T12:14:09;7.30;;;6.27;;
11996;SDS011;6058;48.704;9.474;2023-02-28T12:16:45;7.13;;;5.40;;
11996;SDS011;6058;48.704;9.474;2023-02-28T12:19:17;7.40;;;4.83;;
11996;SDS011;6058;48.704;9.474;2023-02-28T12:21:48;8.83;;;6.80;;
11996;SDS011;6058;48.704;9.474;2023-02-28T12:24:24;7.93;;;6.10;;
11996;SDS011;6058;48.704;9.474;2023-02-28T12:26:53;10.37;;;5.93;;
11996;SDS011;6058;48.704;9.474;2023-02-28T12:29:21;7.63;;;5.50;;
11996;SDS011;6058;48.704;9.474;2023-02-28T12:31:53;10.23;;;6.80;;
11996;SDS011;6058;48.704;9.474;2023-02-28T12:34:23;8.17;;;6.07;;
11996;SDS011;6058;48.704;9.474;2023-02-28T12:36:52;8.73;;;6.20;;
11996;SDS011;6058;48.704;9.474;2023-02-28T12:39:21;9.10;;;6.87;;
11996;SDS011;6058;48.704;9.474;2023-02-28T12:41:51;11.40;;;7.07;;
11996;SDS011;6058;48.704;9.474;2023-02-28T12:44:21;7.10;;;4.10;;
11996;SDS011;6058;48.704;9.474;2023-02-28T12:46:50;3.17;;;2.73;;
11996;SDS011;6058;48.704;9.474;2023-02-28T12:49:21;8.97;;;6.37;;
11996;SDS011;6058;48.704;9.474;2023-02-28T12:51:50;3.33;;;3.03;;
11996;SDS011;6058;48.704;9.474;2023-02-28T12:54:19;8.40;;;5.90;;
11996;SDS011;6058;48.704;9.474;2023-02-28T12:56:50;8.00;;;6.13;;
11996;SDS011;6058;48.704;9.474;2023-02-28T12:59:22;9.10;;;5.10;;
11996;SDS011;6058;48.704;9.474;2023-02-28T13:02:01;8.37;;;5.50;;
11996;SDS011;6058;48.704;9.474;2023-02-28T13:10:16;8.27;;;5.47;;
11996;SDS011;6058;48.704;9.474;2023-02-28T13:12:47;8.87;;;5.87;;
11996;SDS011;6058;48.704;9.474;2023-02-28T13:15:16;6.50;;;4.93;;
11996;SDS011;6058;48.704;9.474;2023-02-28T13:17:47;7.40;;;6.07;;
11996;SDS011;6058;48.704;9.474;2023-02-28T13:20:15;6.37;;;3.87;;
11996;SDS011;6058;48.704;9.474;2023-02-28T13:22:44;7.97;;;5.70;;
11996;SDS011;6058;48.704;9.474;2023-02-28T13:28:10;5.30;;;3.00;;
11996;SDS011;6058;48.704;9.474;2023-02-28T13:33:25;5.80;;;4.83;;
11996;SDS011;6058;48.704;9.474;2023-02-28T13:36:10;3.13;;;2.33;;
11996;SDS011;6058;48.704;9.474;2023-02-28T13:38:38;5.97;;;3.37;;
11996;SDS011;6058;48.704;9.474;2023-02-28T13:44:03;5.10;;;4.03;;
11996;SDS011;6058;48.704;9.474;2023-02-28T13:46:31;7.20;;;5.27;;
11996;SDS011;6058;48.704;9.474;2023-02-28T13:51:41;8.33;;;5.90;;
11996;SDS011;6058;48.704;9.474;2023-02-28T13:56:57;9.87;;;6.90;;
11996;SDS011;6058;48.704;9.474;2023-02-28T13:59:30;7.87;;;5.43;;
11996;SDS011;6058;48.704;9.474;2023-02-28T14:02:03;8.80;;;5.30;;
11996;SDS011;6058;48.704;9.474;2023-02-28T14:04:43;6.80;;;4.63;;
11996;SDS011;6058;48.704;9.474;2023-02-28T14:07:16;8.83;;;6.47;;
11996;SDS011;6058;48.704;9.474;2023-02-28T14:09:45;7.37;;;5.33;;
11996;SDS011;6058;48.704;9.474;2023-02-28T14:15:01;8.27;;;5.60;;
11996;SDS011;6058;48.704;9.474;2023-02-28T14:17:28;8.10;;;5.80;;
11996;SDS011;6058;48.704;9.474;2023-02-28T14:19:55;7.47;;;5.63;;
11996;SDS011;6058;48.704;9.474;2023-02-28T14:22:41;6.50;;;4.37;;
11996;SDS011;6058;48.704;9.474;2023-02-28T14:25:10;7.00;;;5.27;;
11996;SDS011;6058;48.704;9.474;2023-02-28T14:27:42;4.97;;;3.97;;
11996;SDS011;6058;48.704;9.474;2023-02-28T14:33:01;6.60;;;4.97;;
11996;SDS011;6058;48.704;9.474;2023-02-28T14:35:39;6.97;;;3.60;;
11996;SDS011;6058;48.704;9.474;2023-02-28T14:38:12;8.20;;;5.87;;
11996;SDS011;6058;48.704;9.474;2023-02-28T14:40:41;7.00;;;5.33;;
11996;SDS011;6058;48.704;9.474;2023-02-28T14:43:16;11.70;;;6.77;;
11996;SDS011;6058;48.704;9.474;2023-02-28T14:45:48;4.40;;;3.23;;
11996;SDS011;6058;48.704;9.474;2023-02-28T14:48:28;7.50;;;5.50;;
11996;SDS011;6058;48.704;9.474;2023-02-28T14:50:56;4.50;;;3.13;;
11996;SDS011;6058;48.704;9.474;2023-02-28T14:53:25;8.97;;;5.63;;
11996;SDS011;6058;48.704;9.474;2023-02-28T14:55:52;10.07;;;6.40;;
11996;SDS011;6058;48.704;9.474;2023-02-28T14:58:22;10.97;;;5.60;;
11996;SDS011;6058;48.704;9.474;2023-02-28T15:00:50;8.40;;;5.40;;
11996;SDS011;6058;48.704;9.474;2023-02-28T15:03:18;8.03;;;5.47;;
11996;SDS011;6058;48.704;9.474;2023-02-28T15:05:52;10.30;;;5.90;;
11996;SDS011;6058;48.704;9.474;2023-02-28T15:08:19;6.37;;;4.13;;
11996;SDS011;6058;48.704;9.474;2023-02-28T15:10:50;5.00;;;3.57;;
11996;SDS011;6058;48.704;9.474;2023-02-28T15:13:18;3.93;;;3.57;;
11996;SDS011;6058;48.704;9.474;2023-02-28T15:15:47;9.37;;;6.07;;
11996;SDS011;6058;48.704;9.474;2023-02-28T15:18:16;6.93;;;3.47;;
11996;SDS011;6058;48.704;9.474;2023-02-28T15:20:45;8.37;;;5.57;;
11996;SDS011;6058;48.704;9.474;2023-02-28T15:23:13;10.73;;;5.57;;
11996;SDS011;6058;48.704;9.474;2023-02-28T15:25:41;6.00;;;5.23;;
11996;SDS011;6058;48.704;9.474;2023-02-28T15:28:10;8.73;;;5.97;;
11996;SDS011;6058;48.704;9.474;2023-02-28T15:30:39;3.80;;;3.03;;
11996;SDS011;6058;48.704;9.474;2023-02-28T15:33:18;6.93;;;4.07;;
11996;SDS011;6058;48.704;9.474;2023-02-28T15:35:45;7.23;;;6.30;;
11996;SDS011;6058;48.704;9.474;2023-02-28T15:38:15;7.77;;;5.90;;
11996;SDS011;6058;48.704;9.474;2023-02-28T15:40:43;7.07;;;5.13;;
11996;SDS011;6058;48.704;9.474;2023-02-28T15:43:19;7.60;;;6.03;;
11996;SDS011;6058;48.704;9.474;2023-02-28T15:45:50;8.10;;;5.10;;
11996;SDS011;6058;48.704;9.474;2023-02-28T15:48:18;7.33;;;6.03;;
11996;SDS011;6058;48.704;9.474;2023-02-28T15:50:47;7.70;;;5.87;;